createdAt,value
2022-09-15T00:01:43.379Z,100.00
2022-09-15T00:04:30.050Z,100.00
2022-09-15T00:07:16.687Z,100.00
2022-09-15T00:10:04.088Z,100.00
2022-09-15T00:12:50.841Z,100.00
2022-09-15T00:15:37.782Z,100.00
2022-09-15T00:18:24.567Z,100.00
2022-09-15T00:21:12.702Z,100.00
2022-09-15T00:23:59.810Z,100.00
2022-09-15T00:26:46.479Z,100.00
2022-09-15T00:29:33.489Z,100.00
2022-09-15T00:32:20.320Z,100.00
2022-09-15T00:35:06.974Z,100.00
2022-09-15T00:37:53.783Z,100.00
2022-09-15T00:40:47.534Z,100.00
2022-09-15T00:43:51.372Z,100.00
2022-09-15T00:46:39.867Z,100.00
2022-09-15T00:49:27.647Z,100.00
2022-09-15T00:52:22.367Z,100.00
2022-09-15T00:55:16.687Z,100.00
2022-09-15T00:58:04.847Z,100.00
2022-09-15T01:00:52.684Z,100.00
2022-09-15T01:03:39.822Z,100.00
2022-09-15T01:06:37.167Z,100.00
2022-09-15T01:09:25.471Z,100.00
2022-09-15T01:12:11.846Z,100.00
2022-09-15T01:14:59.470Z,100.00
2022-09-15T01:17:47.591Z,100.00
2022-09-15T01:20:41.990Z,100.00
2022-09-15T01:23:33.493Z,100.00
2022-09-15T01:26:21.871Z,100.00
2022-09-15T01:29:26.903Z,100.00
2022-09-15T01:32:41.719Z,100.00
2022-09-15T01:35:33.704Z,100.00
2022-09-15T01:38:21.766Z,100.00
2022-09-15T01:41:13.304Z,100.00
2022-09-15T01:44:10.345Z,100.00
2022-09-15T01:46:58.444Z,100.00
2022-09-15T01:49:52.781Z,100.00
2022-09-15T01:52:41.214Z,100.00
2022-09-15T01:55:32.238Z,100.00
2022-09-15T01:58:18.785Z,100.00
2022-09-15T02:01:15.074Z,100.00
2022-09-15T02:04:06.070Z,100.00
2022-09-15T02:06:54.497Z,100.00
2022-09-15T02:09:58.990Z,100.00
2022-09-15T02:13:03.295Z,100.00
2022-09-15T02:15:51.794Z,100.00
2022-09-15T02:18:44.262Z,100.00
2022-09-15T02:21:37.233Z,100.00
2022-09-15T02:24:25.495Z,100.00
2022-09-15T02:29:55.798Z,100.00
2022-09-15T02:32:43.918Z,100.00
2022-09-15T02:35:31.067Z,100.00
2022-09-15T02:38:18.064Z,100.00
2022-09-15T02:41:05.374Z,100.00
2022-09-15T02:43:52.489Z,100.00
2022-09-15T02:46:39.879Z,100.00
2022-09-15T02:49:26.422Z,100.00
2022-09-15T02:52:13.223Z,100.00
2022-09-15T02:55:01.067Z,100.00
2022-09-15T02:57:47.511Z,100.00
2022-09-15T03:00:34.303Z,100.00
2022-09-15T03:03:22.121Z,100.00
2022-09-15T03:06:17.356Z,100.00
2022-09-15T03:09:05.314Z,100.00
2022-09-15T03:11:52.079Z,100.00
2022-09-15T03:14:39.070Z,100.00
2022-09-15T03:17:25.747Z,100.00
2022-09-15T03:20:13.582Z,100.00
2022-09-15T03:23:00.134Z,100.00
2022-09-15T03:25:46.663Z,100.00
2022-09-15T03:28:33.742Z,100.00
2022-09-15T03:31:20.527Z,100.00
2022-09-15T03:34:07.071Z,100.00
2022-09-15T03:36:53.727Z,100.00
2022-09-15T03:39:40.079Z,100.00
2022-09-15T03:42:26.934Z,100.00
2022-09-15T03:45:13.742Z,100.00
2022-09-15T03:48:00.680Z,100.00
2022-09-15T03:50:47.377Z,100.00
2022-09-15T03:53:34.854Z,100.00
2022-09-15T03:56:25.960Z,100.00
2022-09-15T03:59:12.562Z,100.00
2022-09-15T04:01:59.280Z,100.00
2022-09-15T04:04:45.918Z,100.00
2022-09-15T04:07:32.463Z,100.00
2022-09-15T04:10:19.074Z,100.00
2022-09-15T04:13:05.784Z,100.00
2022-09-15T04:16:02.432Z,100.00
2022-09-15T04:18:49.136Z,100.00
2022-09-15T04:21:35.694Z,100.00
2022-09-15T04:24:22.462Z,100.00
2022-09-15T04:27:09.502Z,100.00
2022-09-15T04:29:56.366Z,100.00
2022-09-15T04:32:43.247Z,100.00
2022-09-15T04:35:29.879Z,100.00
2022-09-15T04:38:16.430Z,100.00
2022-09-15T04:41:02.822Z,100.00
2022-09-15T04:43:49.760Z,100.00
2022-09-15T04:46:36.332Z,100.00
2022-09-15T04:49:23.119Z,100.00
2022-09-15T04:52:10.179Z,100.00
2022-09-15T04:54:57.479Z,100.00
2022-09-15T04:57:44.257Z,100.00
2022-09-15T05:00:31.145Z,100.00
2022-09-15T05:03:17.654Z,100.00
2022-09-15T05:06:05.222Z,100.00
2022-09-15T05:08:52.929Z,100.00
2022-09-15T05:11:39.799Z,100.00
2022-09-15T05:14:26.625Z,100.00
2022-09-15T05:17:13.358Z,100.00
2022-09-15T05:20:00.544Z,100.00
2022-09-15T05:22:47.422Z,100.00
2022-09-15T05:25:34.655Z,100.00
2022-09-15T05:28:21.191Z,100.00
2022-09-15T05:31:21.298Z,100.00
2022-09-15T05:34:07.999Z,100.00
2022-09-15T05:36:54.767Z,100.00
2022-09-15T05:39:42.887Z,100.00
2022-09-15T05:42:32.269Z,100.00
2022-09-15T05:45:19.046Z,100.00
2022-09-15T05:48:05.935Z,100.00
2022-09-15T05:50:53.073Z,100.00
2022-09-15T05:53:40.367Z,100.00
2022-09-15T05:56:27.407Z,100.00
2022-09-15T05:59:15.158Z,100.00
2022-09-15T06:02:02.711Z,100.00
2022-09-15T06:04:52.768Z,100.00
2022-09-15T06:07:39.359Z,100.00
2022-09-15T06:10:25.886Z,100.00
2022-09-15T06:13:12.391Z,100.00
2022-09-15T06:16:04.246Z,100.00
2022-09-15T06:18:51.280Z,100.00
2022-09-15T06:21:38.350Z,100.00
2022-09-15T06:24:24.870Z,100.00
2022-09-15T06:27:11.831Z,100.00
2022-09-15T06:29:58.526Z,100.00
2022-09-15T06:32:48.351Z,100.00
2022-09-15T06:35:35.007Z,100.00
2022-09-15T06:38:21.838Z,100.00
2022-09-15T06:41:09.544Z,100.00
2022-09-15T06:43:56.567Z,100.00
2022-09-15T06:46:43.408Z,100.00
2022-09-15T06:49:30.511Z,100.00
2022-09-15T06:52:20.654Z,100.00
2022-09-15T06:55:08.071Z,100.00
2022-09-15T06:58:01.502Z,100.00
2022-09-15T07:00:48.454Z,100.00
2022-09-15T07:03:37.146Z,100.00
2022-09-15T07:06:23.767Z,100.00
2022-09-15T07:09:11.598Z,100.00
2022-09-15T07:11:58.974Z,100.00
2022-09-15T07:14:28.464Z,100.00
2022-09-15T07:17:16.830Z,100.00
2022-09-15T07:19:46.055Z,100.00
2022-09-15T07:22:14.222Z,100.00
2022-09-15T07:24:42.190Z,100.00
2022-09-15T07:27:10.454Z,100.00
2022-09-15T07:29:40.743Z,100.00
2022-09-15T07:32:08.927Z,100.00
2022-09-15T07:34:36.905Z,100.00
2022-09-15T07:37:05.214Z,100.00
2022-09-15T07:39:33.262Z,100.00
2022-09-15T07:42:01.219Z,100.00
2022-09-15T07:44:29.191Z,100.00
2022-09-15T07:46:57.208Z,100.00
2022-09-15T07:49:25.398Z,100.00
2022-09-15T07:51:53.470Z,100.00
2022-09-15T07:54:23.072Z,100.00
2022-09-15T07:56:51.831Z,100.00
2022-09-15T07:59:19.833Z,100.00
2022-09-15T08:01:51.421Z,100.00
2022-09-15T08:04:19.399Z,100.00
2022-09-15T08:06:47.305Z,100.00
2022-09-15T08:09:17.007Z,100.00
2022-09-15T08:11:44.879Z,100.00
2022-09-15T08:14:13.006Z,100.00
2022-09-15T08:16:40.894Z,100.00
2022-09-15T08:19:09.126Z,100.00
2022-09-15T08:21:37.040Z,100.00
2022-09-15T08:24:05.246Z,100.00
2022-09-15T08:26:33.560Z,100.00
2022-09-15T08:29:01.758Z,100.00
2022-09-15T08:31:29.838Z,100.00
2022-09-15T08:33:58.155Z,100.00
2022-09-15T08:36:28.304Z,98.29
2022-09-15T08:38:56.859Z,96.84
2022-09-15T08:41:29.822Z,97.63
2022-09-15T08:44:02.502Z,97.93
2022-09-15T08:46:32.128Z,97.08
2022-09-15T08:49:03.172Z,97.79
2022-09-15T08:51:32.974Z,98.34
2022-09-15T08:54:02.193Z,98.44
2022-09-15T08:56:30.319Z,97.53
2022-09-15T08:58:58.495Z,96.32
2022-09-15T09:01:44.597Z,95.72
2022-09-15T09:04:20.014Z,94.66
2022-09-15T09:09:19.126Z,94.37
2022-09-15T09:11:57.543Z,93.45
2022-09-15T09:15:26.746Z,95.14
2022-09-15T09:18:38.791Z,94.94
2022-09-15T09:21:23.853Z,93.32
2022-09-15T09:24:26.008Z,94.14
2022-09-15T09:26:58.112Z,95.10
2022-09-15T09:29:32.976Z,97.01
2022-09-15T09:32:12.272Z,97.83
2022-09-15T09:35:08.923Z,96.19
2022-09-15T09:37:37.783Z,94.86
2022-09-15T09:40:07.462Z,95.17
2022-09-15T09:42:42.840Z,95.61
2022-09-15T09:45:16.268Z,95.81
2022-09-15T09:47:46.482Z,95.52
2022-09-15T09:50:33.833Z,95.92
2022-09-15T09:53:22.268Z,94.78
2022-09-15T09:55:51.115Z,94.61
2022-09-15T09:58:28.808Z,94.01
2022-09-15T10:00:59.149Z,94.55
2022-09-15T10:03:32.687Z,95.18
2022-09-15T10:06:07.910Z,96.42
2022-09-15T10:08:38.399Z,96.46
2022-09-15T10:11:10.397Z,95.82
2022-09-15T10:13:42.481Z,96.16
2022-09-15T10:16:11.850Z,96.33
2022-09-15T10:18:40.952Z,94.81
2022-09-15T10:21:11.367Z,92.08
2022-09-15T10:23:40.063Z,92.44
2022-09-15T10:26:20.951Z,91.76
2022-09-15T10:29:12.851Z,91.78
2022-09-15T10:31:45.155Z,91.97
2022-09-15T10:34:31.483Z,92.96
2022-09-15T10:37:15.096Z,94.93
2022-09-15T10:39:52.801Z,94.80
2022-09-15T10:42:37.103Z,95.77
2022-09-15T10:45:14.207Z,95.30
2022-09-15T10:48:08.415Z,92.67
2022-09-15T10:51:00.402Z,91.46
2022-09-15T10:53:34.944Z,90.37
2022-09-15T10:59:56.352Z,87.57
2022-09-15T11:03:03.567Z,88.32
2022-09-15T11:05:48.815Z,88.65
2022-09-15T11:08:38.563Z,87.46
2022-09-15T11:11:22.383Z,86.00
2022-09-15T11:14:12.215Z,86.18
2022-09-15T11:17:22.479Z,85.86
2022-09-15T11:20:03.339Z,86.44
2022-09-15T11:22:35.447Z,85.53
2022-09-15T11:25:13.296Z,85.05
2022-09-15T11:27:44.009Z,84.54
2022-09-15T11:30:17.768Z,86.41
2022-09-15T11:32:57.896Z,88.28
2022-09-15T11:35:39.560Z,88.43
2022-09-15T11:38:29.172Z,88.45
2022-09-15T11:41:06.443Z,88.23
2022-09-15T11:47:08.047Z,86.32
2022-09-15T11:49:48.472Z,83.40
2022-09-15T11:52:45.039Z,80.73
2022-09-15T11:55:34.911Z,78.75
2022-09-15T11:58:06.968Z,77.95
2022-09-15T12:00:37.391Z,77.64
2022-09-15T12:03:24.143Z,78.17
2022-09-15T12:06:08.022Z,78.72
2022-09-15T12:08:46.057Z,77.27
2022-09-15T12:11:17.831Z,75.01
2022-09-15T12:13:47.216Z,75.08
2022-09-15T12:16:17.251Z,75.85
2022-09-15T12:19:08.580Z,77.94
2022-09-15T12:21:40.752Z,77.82
2022-09-15T12:24:34.137Z,79.08
2022-09-15T12:27:03.394Z,79.29
2022-09-15T12:29:42.101Z,79.91
2022-09-15T12:32:29.915Z,80.94
2022-09-15T12:35:04.442Z,80.10
2022-09-15T12:37:47.543Z,79.47
2022-09-15T12:40:38.113Z,78.17
2022-09-15T12:43:16.513Z,80.05
2022-09-15T12:45:57.458Z,81.77
2022-09-15T12:48:31.980Z,83.83
2022-09-15T12:51:10.559Z,85.93
2022-09-15T12:53:44.533Z,86.90
2022-09-15T12:56:16.312Z,88.38
2022-09-15T12:58:49.555Z,89.74
2022-09-15T13:01:27.447Z,90.70
2022-09-15T13:04:02.225Z,90.97
2022-09-15T13:06:34.947Z,90.33
2022-09-15T13:09:09.951Z,89.41
2022-09-15T13:11:40.939Z,88.12
2022-09-15T13:14:30.529Z,87.39
2022-09-15T13:17:23.287Z,87.52
2022-09-15T13:20:15.289Z,87.71
2022-09-15T13:23:03.825Z,87.45
2022-09-15T13:25:52.984Z,86.33
2022-09-15T13:28:40.783Z,86.78
2022-09-15T13:31:39.191Z,87.23
2022-09-15T13:35:15.609Z,87.68
2022-09-15T13:38:22.680Z,87.94
2022-09-15T13:40:50.585Z,87.87
2022-09-15T13:43:59.024Z,88.30
2022-09-15T13:47:15.400Z,88.48
2022-09-15T13:50:15.352Z,89.61
2022-09-15T13:53:05.916Z,90.02
2022-09-15T13:55:55.612Z,90.72
2022-09-15T13:59:04.564Z,91.69
2022-09-15T14:01:15.455Z,92.44
2022-09-15T14:03:50.303Z,93.10
2022-09-15T14:06:31.241Z,93.48
2022-09-15T14:09:04.359Z,94.17
2022-09-15T14:11:34.971Z,94.62
2022-09-15T14:14:04.032Z,93.94
2022-09-15T14:16:39.203Z,94.02
2022-09-15T14:22:31.392Z,94.39
2022-09-15T14:25:03.160Z,95.15
2022-09-15T14:27:34.488Z,96.57
2022-09-15T14:30:08.656Z,97.41
2022-09-15T14:32:40.105Z,98.39
2022-09-15T14:35:13.857Z,99.36
2022-09-15T14:38:01.031Z,100.00
2022-09-15T14:40:38.074Z,100.00
2022-09-15T14:43:39.307Z,100.00
2022-09-15T14:46:13.886Z,100.00
2022-09-15T14:48:43.718Z,100.00
2022-09-15T14:51:18.800Z,100.00
2022-09-15T14:53:49.951Z,100.00
2022-09-15T14:56:23.935Z,100.00
2022-09-15T14:59:01.831Z,100.00
2022-09-15T15:01:45.640Z,100.00
2022-09-15T15:04:26.281Z,100.00
2022-09-15T15:07:03.904Z,100.00
2022-09-15T15:12:38.680Z,100.00
2022-09-15T15:15:10.192Z,100.00
2022-09-15T15:17:51.196Z,100.00
2022-09-15T15:20:28.401Z,100.00
2022-09-15T15:23:18.591Z,100.00
2022-09-15T15:25:47.736Z,100.00
2022-09-15T15:28:38.776Z,100.00
2022-09-15T15:31:19.192Z,100.00
2022-09-15T15:33:50.377Z,100.00
2022-09-15T15:36:29.390Z,100.00
2022-09-15T15:42:06.160Z,100.00
2022-09-15T15:45:12.504Z,100.00
2022-09-15T15:48:01.886Z,100.00
2022-09-15T15:50:49.936Z,100.00
2022-09-15T15:53:40.335Z,100.00
2022-09-15T15:56:27.943Z,100.00
2022-09-15T15:59:17.330Z,100.00
2022-09-15T16:02:07.106Z,100.00
2022-09-15T16:04:55.136Z,100.00
2022-09-15T16:07:43.088Z,100.00
2022-09-15T16:10:34.082Z,100.00
2022-09-15T16:13:23.752Z,100.00
2022-09-15T16:16:17.095Z,100.00
2022-09-15T16:19:04.891Z,100.00
2022-09-15T16:21:52.335Z,100.00
2022-09-15T16:24:40.008Z,100.00
2022-09-15T16:27:29.194Z,100.00
2022-09-15T16:30:16.327Z,100.00
2022-09-15T16:33:05.547Z,100.00
2022-09-15T16:35:59.553Z,100.00
2022-09-15T16:38:47.025Z,100.00
2022-09-15T16:41:39.019Z,100.00
2022-09-15T16:44:23.370Z,100.00
2022-09-15T16:47:12.831Z,100.00
2022-09-15T16:49:59.958Z,100.00
2022-09-15T16:52:46.928Z,100.00
2022-09-15T16:55:51.512Z,100.00
2022-09-15T16:58:40.463Z,100.00
2022-09-15T17:01:27.566Z,100.00
2022-09-15T17:04:16.968Z,100.00
2022-09-15T17:07:04.639Z,100.00
2022-09-15T17:09:53.169Z,100.00
2022-09-15T17:12:42.024Z,100.00
2022-09-15T17:15:49.013Z,100.00
2022-09-15T17:18:36.609Z,100.00
2022-09-15T17:21:25.478Z,100.00
2022-09-15T17:24:13.387Z,100.00
2022-09-15T17:27:00.850Z,100.00
2022-09-15T17:29:47.883Z,100.00
2022-09-15T17:32:35.631Z,100.00
2022-09-15T17:35:26.005Z,100.00
2022-09-15T17:38:13.760Z,100.00
2022-09-15T17:41:01.589Z,100.00
2022-09-15T17:43:50.105Z,100.00
2022-09-15T17:46:37.958Z,100.00
2022-09-15T17:49:25.120Z,100.00
2022-09-15T17:52:12.585Z,100.00
2022-09-15T17:55:01.779Z,100.00
2022-09-15T17:57:50.271Z,100.00
2022-09-15T18:00:39.799Z,100.00
2022-09-15T18:03:29.120Z,100.00
2022-09-15T18:06:16.784Z,100.00
2022-09-15T18:09:04.178Z,100.00
2022-09-15T18:11:51.840Z,100.00
2022-09-15T18:14:39.499Z,100.00
2022-09-15T18:17:27.553Z,100.00
2022-09-15T18:20:17.676Z,100.00
2022-09-15T18:23:05.160Z,100.00
2022-09-15T18:25:52.608Z,100.00
2022-09-15T18:28:39.960Z,100.00
2022-09-15T18:31:27.264Z,100.00
2022-09-15T18:34:14.696Z,100.00
2022-09-15T18:37:02.802Z,100.00
2022-09-15T18:39:50.227Z,100.00
2022-09-15T18:42:38.337Z,100.00
2022-09-15T18:45:25.615Z,100.00
2022-09-15T18:48:15.864Z,100.00
2022-09-15T18:51:07.814Z,100.00
2022-09-15T18:53:55.119Z,100.00
2022-09-15T18:56:42.568Z,100.00
2022-09-15T18:59:32.657Z,100.00
2022-09-15T19:02:20.024Z,100.00
2022-09-15T19:05:08.379Z,100.00
2022-09-15T19:07:57.065Z,100.00
2022-09-15T19:10:49.191Z,100.00
2022-09-15T19:13:39.640Z,100.00
2022-09-15T19:16:46.665Z,100.00
2022-09-15T19:19:17.879Z,100.00
2022-09-15T19:22:05.239Z,100.00
2022-09-15T19:24:53.231Z,100.00
2022-09-15T19:27:44.497Z,100.00
2022-09-15T19:30:32.338Z,100.00
2022-09-15T19:33:20.330Z,100.00
2022-09-15T19:36:28.368Z,100.00
2022-09-15T19:39:00.547Z,100.00
2022-09-15T19:41:47.801Z,100.00
2022-09-15T19:44:35.777Z,100.00
2022-09-15T19:47:23.467Z,100.00
2022-09-15T19:50:12.399Z,100.00
2022-09-15T19:52:59.853Z,100.00
2022-09-15T19:55:54.114Z,100.00
2022-09-15T19:58:41.479Z,100.00
2022-09-15T20:01:30.740Z,100.00
2022-09-15T20:04:18.359Z,100.00
2022-09-15T20:07:05.791Z,100.00
2022-09-15T20:09:53.670Z,100.00
2022-09-15T20:12:41.328Z,100.00
2022-09-15T20:15:30.447Z,100.00
2022-09-15T20:18:18.383Z,100.00
2022-09-15T20:21:21.754Z,100.00
2022-09-15T20:24:00.839Z,100.00
2022-09-15T20:26:48.304Z,100.00
2022-09-15T20:29:35.977Z,100.00
2022-09-15T20:32:28.141Z,100.00
2022-09-15T20:35:14.415Z,100.00
2022-09-15T20:38:01.424Z,100.00
2022-09-15T20:40:48.881Z,100.00
2022-09-15T20:43:40.209Z,100.00
2022-09-15T20:46:29.295Z,100.00
2022-09-15T20:49:16.953Z,100.00
2022-09-15T20:52:06.164Z,100.00
2022-09-15T20:54:54.199Z,100.00
2022-09-15T20:57:41.935Z,100.00
2022-09-15T21:00:33.673Z,100.00
2022-09-15T21:03:18.320Z,100.00
2022-09-15T21:06:08.401Z,100.00
2022-09-15T21:08:57.818Z,100.00
2022-09-15T21:11:45.152Z,100.00
2022-09-15T21:14:32.224Z,100.00
2022-09-15T21:17:20.039Z,100.00
2022-09-15T21:20:07.567Z,100.00
2022-09-15T21:22:56.107Z,100.00
2022-09-15T21:25:43.599Z,100.00
2022-09-15T21:28:31.817Z,100.00
2022-09-15T21:31:21.590Z,100.00
2022-09-15T21:34:09.671Z,100.00
2022-09-15T21:36:58.008Z,100.00
2022-09-15T21:39:45.377Z,100.00
2022-09-15T21:42:34.602Z,100.00
2022-09-15T21:45:22.203Z,100.00
2022-09-15T21:48:09.496Z,100.00
2022-09-15T21:50:56.791Z,100.00
2022-09-15T21:53:44.543Z,100.00
2022-09-15T21:56:31.992Z,100.00
2022-09-15T21:59:19.439Z,100.00
2022-09-15T22:02:06.854Z,100.00
2022-09-15T22:04:54.752Z,100.00
2022-09-15T22:07:42.120Z,100.00
2022-09-15T22:10:30.439Z,100.00
2022-09-15T22:13:17.958Z,100.00
2022-09-15T22:16:07.915Z,100.00
2022-09-15T22:18:55.815Z,100.00
2022-09-15T22:21:43.267Z,100.00
2022-09-15T22:24:30.862Z,100.00
2022-09-15T22:27:17.927Z,100.00
2022-09-15T22:30:06.398Z,100.00
2022-09-15T22:32:54.272Z,100.00
2022-09-15T22:35:41.575Z,100.00
2022-09-15T22:38:30.680Z,100.00
2022-09-15T22:41:19.431Z,100.00
2022-09-15T22:44:08.287Z,100.00
2022-09-15T22:46:55.696Z,100.00
2022-09-15T22:49:43.082Z,100.00
2022-09-15T22:52:30.671Z,100.00
2022-09-15T22:55:18.969Z,100.00
2022-09-15T22:58:06.682Z,100.00
2022-09-15T23:00:54.126Z,100.00
2022-09-15T23:03:41.824Z,100.00
2022-09-15T23:06:31.902Z,100.00
2022-09-15T23:09:19.216Z,100.00
2022-09-15T23:12:08.130Z,100.00
2022-09-15T23:14:55.679Z,100.00
2022-09-15T23:17:42.904Z,100.00
2022-09-15T23:20:30.104Z,100.00
2022-09-15T23:23:17.411Z,100.00
2022-09-15T23:26:06.061Z,100.00
2022-09-15T23:28:53.568Z,100.00
2022-09-15T23:31:41.250Z,100.00
2022-09-15T23:34:28.648Z,100.00
2022-09-15T23:37:16.120Z,100.00
2022-09-15T23:40:03.572Z,100.00
2022-09-15T23:42:50.936Z,100.00
2022-09-15T23:45:38.896Z,100.00
2022-09-15T23:48:26.242Z,100.00
2022-09-15T23:51:13.600Z,100.00
2022-09-15T23:54:02.394Z,100.00
2022-09-15T23:56:50.055Z,100.00
2022-09-15T23:59:37.288Z,100.00
